createdAt,value
2019-02-24T00:02:15.218Z,23.07
2019-02-24T00:04:43.431Z,24.00
2019-02-24T00:07:11.647Z,22.45
2019-02-24T00:09:39.855Z,24.30
2019-02-24T00:12:08.068Z,22.82
2019-02-24T00:14:36.275Z,22.07
2019-02-24T00:17:04.480Z,23.52
2019-02-24T00:19:32.690Z,22.50
2019-02-24T00:22:00.903Z,23.33
2019-02-24T00:24:29.109Z,22.85
2019-02-24T00:26:57.323Z,22.37
2019-02-24T00:29:25.527Z,20.50
2019-02-24T00:31:53.753Z,21.42
2019-02-24T00:34:21.951Z,21.90
2019-02-24T00:36:50.178Z,22.27
2019-02-24T00:39:18.383Z,22.15
2019-02-24T00:41:46.619Z,22.67
2019-02-24T00:44:14.822Z,22.27
2019-02-24T00:46:43.034Z,22.42
2019-02-24T00:49:11.254Z,24.40
2019-02-24T00:51:39.462Z,23.95
2019-02-24T00:54:07.675Z,23.90
2019-02-24T00:56:35.886Z,23.98
2019-02-24T00:59:04.103Z,24.60
2019-02-24T01:01:32.311Z,23.90
2019-02-24T01:04:00.524Z,24.02
2019-02-24T01:06:28.739Z,23.40
2019-02-24T01:08:56.955Z,23.70
2019-02-24T01:11:25.164Z,23.73
2019-02-24T01:13:54.037Z,23.83
2019-02-24T01:16:22.360Z,22.98
2019-02-24T01:18:50.579Z,22.55
2019-02-24T01:21:18.771Z,22.00
2019-02-24T01:23:46.993Z,23.00
2019-02-24T01:26:15.214Z,24.07
2019-02-24T01:28:43.435Z,23.70
2019-02-24T01:31:11.642Z,21.90
2019-02-24T01:33:40.027Z,23.50
2019-02-24T01:36:08.238Z,21.82
2019-02-24T01:38:36.467Z,21.77
2019-02-24T01:41:04.682Z,21.33
2019-02-24T01:43:32.902Z,23.10
2019-02-24T01:46:01.118Z,22.55
2019-02-24T01:48:29.343Z,22.25
2019-02-24T01:50:57.550Z,23.00
2019-02-24T01:53:25.768Z,21.75
2019-02-24T01:55:53.973Z,21.00
2019-02-24T01:58:22.197Z,21.50
2019-02-24T02:00:50.402Z,21.05
2019-02-24T02:03:18.639Z,20.85
2019-02-24T02:05:46.845Z,21.57
2019-02-24T02:08:15.161Z,21.35
2019-02-24T02:10:43.375Z,21.47
2019-02-24T02:13:11.588Z,20.15
2019-02-24T02:15:40.754Z,21.07
2019-02-24T02:18:09.002Z,19.98
2019-02-24T02:20:37.213Z,19.03
2019-02-24T02:23:05.482Z,19.70
2019-02-24T02:25:33.695Z,21.90
2019-02-24T02:28:01.919Z,20.85
2019-02-24T02:30:30.130Z,20.43
2019-02-24T02:32:58.343Z,21.23
2019-02-24T02:35:26.551Z,21.00
2019-02-24T02:37:54.767Z,21.02
2019-02-24T02:40:22.988Z,20.70
2019-02-24T02:42:51.183Z,19.98
2019-02-24T02:45:19.394Z,21.40
2019-02-24T02:47:47.603Z,21.82
2019-02-24T02:50:15.815Z,20.30
2019-02-24T02:52:44.028Z,21.17
2019-02-24T02:55:12.325Z,20.72
2019-02-24T02:57:40.526Z,21.00
2019-02-24T03:00:13.744Z,21.42
2019-02-24T03:02:41.958Z,22.02
2019-02-24T03:05:10.179Z,20.77
2019-02-24T03:07:42.310Z,21.20
2019-02-24T03:10:10.545Z,21.25
2019-02-24T03:12:38.751Z,21.20
2019-02-24T03:15:06.959Z,21.68
2019-02-24T03:17:35.163Z,21.50
2019-02-24T03:20:03.563Z,22.45
2019-02-24T03:22:31.774Z,21.85
2019-02-24T03:24:59.991Z,19.60
2019-02-24T03:27:28.208Z,20.80
2019-02-24T03:29:56.423Z,18.30
2019-02-24T03:32:24.620Z,18.73
2019-02-24T03:34:52.831Z,17.92
2019-02-24T03:37:21.044Z,17.70
2019-02-24T03:39:49.251Z,17.87
2019-02-24T03:42:17.459Z,18.80
2019-02-24T03:44:45.685Z,18.52
2019-02-24T03:47:13.895Z,18.55
2019-02-24T03:49:42.098Z,18.17
2019-02-24T03:52:10.315Z,19.48
2019-02-24T03:54:38.583Z,24.98
2019-02-24T03:57:06.807Z,24.12
2019-02-24T03:59:35.027Z,22.80
2019-02-24T04:02:03.235Z,21.68
2019-02-24T04:04:31.442Z,19.90
2019-02-24T04:06:59.664Z,18.73
2019-02-24T04:09:27.920Z,19.00
2019-02-24T04:11:56.144Z,19.02
2019-02-24T04:14:24.344Z,18.32
2019-02-24T04:16:52.555Z,19.98
2019-02-24T04:19:20.770Z,19.85
2019-02-24T04:21:48.979Z,19.20
2019-02-24T04:24:17.258Z,19.07
2019-02-24T04:26:45.480Z,18.27
2019-02-24T04:29:13.695Z,19.17
2019-02-24T04:31:41.911Z,18.00
2019-02-24T04:34:10.228Z,19.30
2019-02-24T04:36:38.475Z,18.43
2019-02-24T04:39:06.710Z,19.23
2019-02-24T04:41:34.932Z,19.70
2019-02-24T04:44:03.164Z,18.92
2019-02-24T04:46:31.467Z,19.10
2019-02-24T04:48:59.683Z,18.83
2019-02-24T04:51:27.894Z,19.23
2019-02-24T04:53:56.107Z,18.80
2019-02-24T04:56:24.330Z,18.65
2019-02-24T04:58:52.548Z,19.03
2019-02-24T05:01:20.800Z,18.77
2019-02-24T05:03:49.012Z,17.97
2019-02-24T05:06:17.252Z,17.80
2019-02-24T05:08:45.472Z,18.10
2019-02-24T05:11:13.696Z,18.33
2019-02-24T05:13:41.903Z,17.30
2019-02-24T05:16:10.152Z,18.67
2019-02-24T05:18:38.378Z,23.62
2019-02-24T05:21:06.595Z,24.73
2019-02-24T05:23:34.866Z,24.57
2019-02-24T05:26:03.154Z,18.40
2019-02-24T05:28:31.449Z,19.65
2019-02-24T05:31:00.855Z,19.95
2019-02-24T05:33:29.214Z,19.65
2019-02-24T05:35:57.485Z,17.80
2019-02-24T05:38:25.703Z,19.35
2019-02-24T05:40:53.915Z,17.67
2019-02-24T05:43:22.145Z,18.50
2019-02-24T05:45:50.363Z,18.17
2019-02-24T05:48:18.592Z,18.52
2019-02-24T05:50:46.799Z,17.43
2019-02-24T05:53:15.131Z,18.10
2019-02-24T05:55:43.391Z,18.73
2019-02-24T05:58:11.615Z,18.10
2019-02-24T06:00:39.834Z,18.30
2019-02-24T06:03:08.202Z,18.67
2019-02-24T06:05:36.403Z,18.37
2019-02-24T06:08:04.776Z,18.50
2019-02-24T06:10:32.984Z,19.40
2019-02-24T06:13:01.202Z,18.90
2019-02-24T06:15:29.417Z,18.03
2019-02-24T06:17:57.697Z,19.23
2019-02-24T06:20:25.943Z,18.70
2019-02-24T06:22:54.249Z,18.07
2019-02-24T06:25:22.451Z,18.95
2019-02-24T06:27:50.723Z,19.95
2019-02-24T06:30:19.565Z,19.37
2019-02-24T06:32:47.786Z,18.27
2019-02-24T06:35:16.019Z,18.85
2019-02-24T06:37:44.235Z,18.70
2019-02-24T06:40:12.444Z,19.23
2019-02-24T06:42:40.643Z,19.90
2019-02-24T06:45:08.966Z,18.92
2019-02-24T06:47:38.219Z,19.05
2019-02-24T06:50:07.012Z,18.90
2019-02-24T06:52:35.223Z,18.75
2019-02-24T06:55:03.481Z,18.52
2019-02-24T06:57:31.692Z,18.30
2019-02-24T06:59:59.906Z,19.00
2019-02-24T07:02:28.116Z,18.53
2019-02-24T07:04:56.371Z,19.15
2019-02-24T07:07:24.590Z,19.90
2019-02-24T07:09:52.835Z,17.63
2019-02-24T07:12:21.155Z,18.33
2019-02-24T07:14:49.379Z,18.70
2019-02-24T07:17:17.631Z,19.20
2019-02-24T07:19:45.863Z,18.52
2019-02-24T07:22:14.075Z,18.30
2019-02-24T07:24:42.294Z,17.97
2019-02-24T07:27:10.546Z,18.47
2019-02-24T07:29:38.772Z,17.67
2019-02-24T07:32:06.992Z,18.57
2019-02-24T07:34:35.267Z,17.97
2019-02-24T07:37:12.598Z,17.13
2019-02-24T07:39:33.482Z,18.52
2019-02-24T07:42:01.699Z,19.90
2019-02-24T07:44:30.014Z,19.70
2019-02-24T07:46:58.224Z,20.90
2019-02-24T07:49:26.441Z,21.77
2019-02-24T07:51:54.662Z,24.45
2019-02-24T07:54:22.970Z,23.90
2019-02-24T07:56:51.182Z,23.67
2019-02-24T07:59:19.464Z,21.93
2019-02-24T08:01:47.669Z,21.83
2019-02-24T08:04:15.930Z,21.97
2019-02-24T08:06:44.151Z,20.60
2019-02-24T08:09:12.374Z,20.20
2019-02-24T08:11:40.584Z,20.95
2019-02-24T08:14:08.799Z,21.00
2019-02-24T08:16:37.020Z,20.48
2019-02-24T08:19:06.210Z,21.30
2019-02-24T08:21:34.415Z,21.77
2019-02-24T08:24:02.751Z,20.70
2019-02-24T08:26:32.136Z,21.53
2019-02-24T08:29:00.427Z,19.45
2019-02-24T08:31:28.707Z,20.72
2019-02-24T08:33:56.947Z,19.20
2019-02-24T08:36:25.168Z,18.17
2019-02-24T08:38:53.382Z,17.60
2019-02-24T08:41:21.615Z,18.10
2019-02-24T08:43:49.835Z,16.30
2019-02-24T08:46:18.078Z,17.20
2019-02-24T08:48:46.323Z,17.40
2019-02-24T08:51:14.548Z,16.95
2019-02-24T08:53:43.767Z,20.60
2019-02-24T08:56:12.035Z,18.90
2019-02-24T08:58:40.355Z,19.10
2019-02-24T09:01:08.568Z,16.45
2019-02-24T09:03:36.908Z,17.85
2019-02-24T09:06:05.162Z,16.90
2019-02-24T09:08:33.396Z,16.67
2019-02-24T09:11:01.606Z,15.72
2019-02-24T09:13:29.915Z,15.70
2019-02-24T09:15:58.211Z,15.10
2019-02-24T09:18:26.503Z,16.23
2019-02-24T09:20:54.752Z,15.90
2019-02-24T09:23:23.394Z,15.45
2019-02-24T09:25:51.883Z,15.45
2019-02-24T09:28:20.184Z,15.10
2019-02-24T09:30:48.429Z,18.00
2019-02-24T09:33:16.651Z,17.32
2019-02-24T09:35:44.919Z,17.87
2019-02-24T09:38:13.147Z,17.02
2019-02-24T09:40:41.466Z,18.48
2019-02-24T09:43:09.693Z,17.90
2019-02-24T09:45:37.910Z,17.10
2019-02-24T09:48:07.335Z,17.20
2019-02-24T09:50:37.300Z,17.23
2019-02-24T09:53:05.994Z,16.57
2019-02-24T09:55:34.394Z,15.80
2019-02-24T09:58:02.791Z,15.77
2019-02-24T10:00:31.069Z,15.80
2019-02-24T10:02:59.303Z,14.57
2019-02-24T10:05:28.344Z,12.40
2019-02-24T10:07:56.632Z,12.57
2019-02-24T10:10:24.992Z,12.77
2019-02-24T10:12:53.212Z,12.30
2019-02-24T10:15:21.449Z,12.80
2019-02-24T10:17:49.726Z,12.73
2019-02-24T10:20:17.945Z,12.67
2019-02-24T10:22:46.167Z,12.10
2019-02-24T10:25:15.534Z,13.15
2019-02-24T10:27:44.411Z,12.67
2019-02-24T10:30:12.783Z,12.43
2019-02-24T10:32:41.043Z,13.53
2019-02-24T10:35:09.247Z,12.37
2019-02-24T10:37:38.755Z,13.18
2019-02-24T10:40:07.873Z,12.20
2019-02-24T10:42:36.070Z,11.60
2019-02-24T10:45:04.650Z,11.80
2019-02-24T10:47:32.986Z,11.20
2019-02-24T10:50:01.198Z,11.68
2019-02-24T10:52:30.743Z,11.10
2019-02-24T10:54:59.230Z,10.17
2019-02-24T10:57:28.285Z,10.15
2019-02-24T10:59:56.509Z,11.37
2019-02-24T11:02:24.740Z,11.73
2019-02-24T11:04:52.959Z,10.50
2019-02-24T11:07:21.183Z,10.23
2019-02-24T11:09:49.388Z,9.63
2019-02-24T11:12:17.604Z,9.75
2019-02-24T11:14:45.816Z,8.17
2019-02-24T11:17:14.031Z,8.68
2019-02-24T11:19:42.325Z,8.58
2019-02-24T11:22:10.618Z,8.97
2019-02-24T11:24:38.863Z,9.00
2019-02-24T11:27:07.104Z,9.15
2019-02-24T11:29:35.306Z,10.10
2019-02-24T11:32:03.539Z,9.20
2019-02-24T11:34:31.755Z,9.00
2019-02-24T11:36:59.982Z,9.23
2019-02-24T11:39:28.199Z,9.30
2019-02-24T11:41:56.425Z,10.00
2019-02-24T11:44:24.703Z,9.53
2019-02-24T11:46:52.919Z,9.30
2019-02-24T11:49:21.140Z,9.80
2019-02-24T11:51:49.340Z,10.40
2019-02-24T11:54:17.567Z,10.13
2019-02-24T11:56:45.784Z,9.30
2019-02-24T11:59:13.995Z,10.18
2019-02-24T12:01:47.567Z,9.25
2019-02-24T12:04:12.256Z,9.80
2019-02-24T12:06:40.467Z,10.60
2019-02-24T12:09:09.152Z,9.80
2019-02-24T12:11:37.391Z,10.13
2019-02-24T12:14:05.603Z,9.50
2019-02-24T12:16:33.808Z,9.55
2019-02-24T12:19:02.026Z,10.30
2019-02-24T12:21:30.231Z,9.70
2019-02-24T12:23:59.187Z,9.68
2019-02-24T12:26:27.391Z,10.30
2019-02-24T12:28:55.628Z,10.10
2019-02-24T12:31:23.862Z,10.17
2019-02-24T12:33:52.075Z,9.93
2019-02-24T12:36:20.291Z,9.28
2019-02-24T12:38:48.499Z,9.70
2019-02-24T12:41:17.667Z,9.98
2019-02-24T12:43:45.891Z,10.05
2019-02-24T12:46:14.103Z,10.93
2019-02-24T12:48:42.326Z,10.43
2019-02-24T12:51:10.548Z,10.23
2019-02-24T12:53:38.759Z,10.23
2019-02-24T12:56:06.978Z,11.00
2019-02-24T12:58:35.219Z,11.53
2019-02-24T13:01:04.012Z,11.20
2019-02-24T13:03:32.222Z,10.30
2019-02-24T13:06:00.437Z,10.63
2019-02-24T13:08:28.689Z,10.50
2019-02-24T13:10:56.898Z,10.90
2019-02-24T13:13:25.136Z,10.88
2019-02-24T13:15:53.355Z,10.67
2019-02-24T13:21:03.061Z,11.10
2019-02-24T13:23:31.291Z,10.70
2019-02-24T13:25:59.501Z,11.27
2019-02-24T13:28:27.726Z,11.20
2019-02-24T13:30:55.930Z,11.40
2019-02-24T13:33:24.159Z,11.83
2019-02-24T13:35:52.374Z,11.33
2019-02-24T13:38:20.626Z,11.10
2019-02-24T13:40:48.847Z,11.68
2019-02-24T13:43:17.070Z,11.70
2019-02-24T13:45:45.295Z,12.33
2019-02-24T13:48:13.519Z,12.70
2019-02-24T13:50:41.903Z,11.53
2019-02-24T13:53:10.111Z,11.07
2019-02-24T13:55:38.348Z,10.88
2019-02-24T13:58:06.559Z,11.23
2019-02-24T14:00:34.839Z,13.53
2019-02-24T14:03:03.055Z,11.97
2019-02-24T14:05:31.279Z,11.73
2019-02-24T14:07:59.487Z,11.03
2019-02-24T14:10:27.727Z,10.40
2019-02-24T14:12:55.935Z,15.83
2019-02-24T14:15:25.242Z,10.68
2019-02-24T14:17:53.479Z,10.90
2019-02-24T14:20:21.691Z,12.90
2019-02-24T14:22:49.890Z,9.83
2019-02-24T14:25:18.106Z,9.60
2019-02-24T14:27:46.354Z,7.70
2019-02-24T14:30:14.585Z,8.70
2019-02-24T14:32:44.137Z,10.50
2019-02-24T14:35:13.022Z,10.77
2019-02-24T14:37:42.211Z,10.13
2019-02-24T14:40:10.507Z,9.88
2019-02-24T14:42:38.718Z,16.27
2019-02-24T14:45:08.535Z,9.48
2019-02-24T14:47:36.746Z,10.25
2019-02-24T14:50:05.115Z,12.95
2019-02-24T14:52:33.339Z,11.40
2019-02-24T14:55:01.569Z,13.25
2019-02-24T14:57:30.848Z,9.53
2019-02-24T14:59:59.078Z,8.17
2019-02-24T15:02:27.305Z,11.53
2019-02-24T15:04:55.558Z,10.35
2019-02-24T15:07:23.779Z,9.83
2019-02-24T15:09:51.976Z,9.73
2019-02-24T15:12:20.195Z,9.40
2019-02-24T15:14:48.399Z,9.23
2019-02-24T15:17:16.603Z,9.53
2019-02-24T15:19:44.807Z,9.20
2019-02-24T15:22:13.019Z,9.23
2019-02-24T15:24:41.235Z,9.20
2019-02-24T15:27:09.457Z,9.47
2019-02-24T15:29:37.662Z,9.70
2019-02-24T15:32:05.873Z,9.30
2019-02-24T15:34:34.099Z,8.70
2019-02-24T15:37:02.382Z,8.10
2019-02-24T15:39:30.580Z,8.38
2019-02-24T15:41:59.299Z,8.63
2019-02-24T15:44:27.511Z,8.85
2019-02-24T15:46:55.715Z,8.60
2019-02-24T15:49:23.914Z,7.90
2019-02-24T15:51:52.132Z,8.30
2019-02-24T15:54:20.339Z,8.90
2019-02-24T15:56:48.558Z,8.30
2019-02-24T15:59:16.752Z,7.90
2019-02-24T16:01:44.979Z,8.30
2019-02-24T16:04:13.190Z,7.70
2019-02-24T16:06:41.415Z,7.78
2019-02-24T16:09:10.206Z,7.78
2019-02-24T16:11:38.431Z,8.05
2019-02-24T16:14:06.655Z,10.97
2019-02-24T16:16:34.872Z,9.50
2019-02-24T16:19:03.087Z,10.30
2019-02-24T16:21:31.320Z,10.35
2019-02-24T16:23:59.543Z,27.90
2019-02-24T16:26:27.767Z,29.20
2019-02-24T16:28:55.995Z,41.97
2019-02-24T16:31:24.211Z,36.17
2019-02-24T16:33:52.428Z,24.53
2019-02-24T16:36:20.644Z,12.55
2019-02-24T16:38:49.452Z,21.87
2019-02-24T16:41:17.667Z,35.33
2019-02-24T16:43:45.883Z,28.75
2019-02-24T16:46:14.109Z,24.23
2019-02-24T16:48:42.347Z,20.10
2019-02-24T16:51:10.538Z,15.40
2019-02-24T16:53:38.764Z,11.73
2019-02-24T16:56:06.967Z,24.27
2019-02-24T16:58:35.196Z,19.85
2019-02-24T17:01:04.554Z,11.53
2019-02-24T17:03:32.767Z,10.60
2019-02-24T17:06:01.063Z,12.80
2019-02-24T17:08:29.293Z,12.63
2019-02-24T17:11:06.836Z,10.00
2019-02-24T17:13:27.447Z,10.32
2019-02-24T17:15:55.652Z,10.38
2019-02-24T17:18:23.875Z,10.70
2019-02-24T17:20:52.102Z,13.40
2019-02-24T17:23:20.362Z,16.30
2019-02-24T17:25:48.656Z,16.55
2019-02-24T17:28:16.919Z,15.83
2019-02-24T17:30:45.187Z,15.03
2019-02-24T17:33:13.430Z,13.88
2019-02-24T17:35:41.724Z,14.05
2019-02-24T17:38:10.086Z,13.90
2019-02-24T17:40:38.303Z,13.20
2019-02-24T17:43:06.595Z,12.70
2019-02-24T17:45:34.898Z,13.07
2019-02-24T17:48:03.214Z,12.47
2019-02-24T17:50:31.415Z,11.63
2019-02-24T17:53:01.325Z,11.38
2019-02-24T17:55:29.896Z,10.40
2019-02-24T17:57:58.331Z,11.18
2019-02-24T18:00:29.454Z,12.20
2019-02-24T18:02:57.651Z,12.60
2019-02-24T18:05:25.875Z,13.03
2019-02-24T18:07:54.258Z,12.65
2019-02-24T18:10:22.478Z,12.10
2019-02-24T18:12:50.686Z,13.10
2019-02-24T18:15:18.927Z,15.47
2019-02-24T18:17:47.887Z,14.30
2019-02-24T18:20:16.188Z,13.70
2019-02-24T18:22:44.392Z,14.45
2019-02-24T18:25:12.616Z,14.60
2019-02-24T18:27:40.846Z,15.20
2019-02-24T18:30:13.103Z,15.30
2019-02-24T18:32:41.321Z,14.53
2019-02-24T18:35:10.615Z,13.93
2019-02-24T18:37:38.934Z,13.38
2019-02-24T18:40:09.162Z,13.57
2019-02-24T18:42:39.453Z,14.55
2019-02-24T18:45:07.788Z,14.37
2019-02-24T18:47:36.011Z,14.33
2019-02-24T18:50:04.931Z,18.63
2019-02-24T18:52:34.235Z,25.10
2019-02-24T18:55:02.450Z,26.80
2019-02-24T18:57:30.674Z,23.57
2019-02-24T18:59:58.905Z,23.95
2019-02-24T19:02:27.355Z,28.17
2019-02-24T19:04:55.586Z,28.57
2019-02-24T19:07:23.809Z,28.67
2019-02-24T19:09:52.030Z,27.65
2019-02-24T19:12:20.234Z,25.10
2019-02-24T19:14:48.457Z,24.75
2019-02-24T19:17:16.691Z,28.95
2019-02-24T19:19:44.953Z,28.33
2019-02-24T19:22:13.203Z,25.70
2019-02-24T19:24:41.437Z,26.73
2019-02-24T19:27:09.722Z,25.07
2019-02-24T19:29:38.196Z,25.45
2019-02-24T19:32:06.408Z,26.50
2019-02-24T19:34:34.652Z,27.30
2019-02-24T19:37:02.880Z,27.75
2019-02-24T19:39:31.095Z,22.77
2019-02-24T19:41:59.314Z,15.00
2019-02-24T19:44:27.578Z,14.40
2019-02-24T19:46:55.820Z,13.40
2019-02-24T19:49:24.042Z,13.93
2019-02-24T19:51:52.300Z,13.58
2019-02-24T19:54:21.497Z,12.73
2019-02-24T19:56:49.718Z,12.77
2019-02-24T19:59:17.941Z,13.15
2019-02-24T20:01:46.172Z,13.78
2019-02-24T20:04:16.256Z,13.85
2019-02-24T20:06:44.314Z,13.32
2019-02-24T20:09:12.716Z,14.20
2019-02-24T20:11:40.982Z,14.87
2019-02-24T20:14:09.187Z,14.65
2019-02-24T20:16:37.420Z,16.42
2019-02-24T20:19:05.934Z,16.30
2019-02-24T20:21:34.158Z,15.37
2019-02-24T20:24:02.497Z,15.60
2019-02-24T20:26:30.716Z,15.53
2019-02-24T20:28:58.955Z,15.60
2019-02-24T20:31:27.207Z,15.80
2019-02-24T20:33:55.533Z,16.17
2019-02-24T20:36:23.816Z,16.95
2019-02-24T20:38:52.110Z,16.75
2019-02-24T20:41:20.392Z,16.53
2019-02-24T20:43:48.620Z,16.60
2019-02-24T20:46:16.847Z,17.45
2019-02-24T20:48:45.067Z,16.80
2019-02-24T20:51:13.376Z,16.85
2019-02-24T20:53:42.227Z,17.07
2019-02-24T20:56:10.470Z,16.60
2019-02-24T20:58:38.687Z,15.13
2019-02-24T21:01:10.747Z,15.85
2019-02-24T21:03:38.980Z,18.00
2019-02-24T21:06:07.202Z,17.30
2019-02-24T21:08:35.499Z,17.70
2019-02-24T21:11:03.766Z,17.35
2019-02-24T21:13:31.987Z,17.67
2019-02-24T21:16:00.477Z,16.00
2019-02-24T21:18:29.984Z,15.80
2019-02-24T21:20:58.337Z,15.23
2019-02-24T21:23:26.658Z,15.35
2019-02-24T21:25:54.898Z,15.72
2019-02-24T21:28:23.122Z,14.37
2019-02-24T21:30:51.344Z,14.80
2019-02-24T21:33:19.586Z,15.32
2019-02-24T21:35:47.826Z,15.40
2019-02-24T21:38:16.163Z,14.93
2019-02-24T21:40:45.116Z,14.75
2019-02-24T21:43:13.539Z,15.10
2019-02-24T21:45:41.788Z,14.80
2019-02-24T21:48:10.067Z,14.70
2019-02-24T21:50:39.336Z,15.77
2019-02-24T21:53:07.564Z,15.68
2019-02-24T21:55:35.795Z,15.73
2019-02-24T21:58:04.463Z,14.93
2019-02-24T22:00:32.813Z,15.10
2019-02-24T22:03:01.033Z,14.77
2019-02-24T22:05:29.265Z,15.65
2019-02-24T22:07:57.496Z,14.25
2019-02-24T22:10:25.705Z,14.90
2019-02-24T22:12:53.937Z,15.55
2019-02-24T22:15:22.259Z,14.68
2019-02-24T22:17:50.631Z,13.78
2019-02-24T22:20:18.910Z,14.80
2019-02-24T22:22:47.126Z,13.63
2019-02-24T22:25:15.635Z,14.50
2019-02-24T22:27:44.019Z,15.08
2019-02-24T22:30:12.791Z,14.65
2019-02-24T22:32:41.003Z,14.55
2019-02-24T22:35:09.416Z,15.13
2019-02-24T22:37:37.669Z,15.58
2019-02-24T22:40:07.095Z,16.17
2019-02-24T22:42:36.391Z,15.90
2019-02-24T22:45:05.313Z,15.60
2019-02-24T22:47:33.536Z,16.10
2019-02-24T22:50:01.755Z,16.17
2019-02-24T22:52:30.105Z,16.70
2019-02-24T22:54:58.489Z,17.57
2019-02-24T22:57:26.723Z,17.82
2019-02-24T22:59:55.156Z,17.27
2019-02-24T23:02:23.734Z,18.20
2019-02-24T23:04:52.029Z,17.55
2019-02-24T23:07:20.322Z,17.40
2019-02-24T23:09:49.592Z,16.90
2019-02-24T23:12:17.811Z,17.63
2019-02-24T23:14:46.055Z,18.23
2019-02-24T23:17:15.363Z,19.60
2019-02-24T23:19:43.579Z,18.67
2019-02-24T23:22:11.794Z,18.48
2019-02-24T23:24:40.086Z,17.73
2019-02-24T23:27:08.376Z,18.33
2019-02-24T23:29:36.723Z,17.07
2019-02-24T23:32:04.999Z,17.70
2019-02-24T23:34:33.219Z,17.63
2019-02-24T23:37:01.451Z,17.07
2019-02-24T23:39:29.770Z,15.87
2019-02-24T23:41:58.006Z,16.17
2019-02-24T23:44:26.222Z,16.02
2019-02-24T23:46:54.437Z,15.38
2019-02-24T23:49:22.659Z,15.10
2019-02-24T23:51:50.867Z,14.20
2019-02-24T23:54:19.099Z,14.40
2019-02-24T23:56:47.315Z,13.50
2019-02-24T23:59:15.656Z,14.75
